Pagrindinis puslapis
METAR-TAF:

METAR-TAF

Oro uostai :

Kajanis, Suomija

platuma: 64-17N, ilguma: 027-41E, Aukštis: 143 m

Dabartinis oras

Ataskaita buvo paskelbta 33 minutes, ne 00:50 UTC
Vėjas 4 kt iš Pietų/Pietvakarių, svyruoja nuo Pietų ir Pietvakarių
Temperatūra 1°C
Drėgmė 86%
Slėgis 1012 hPa
Matomumas 10 km arba daugiau
Apsiniaukę ne aukštis 1400 ft

METAR: EFKI 270050Z AUTO 20004KT 170V230 9999 OVC014 01/M01 Q1012

Laikas: 03:23 (01:23 UTC)

Prognozė

Ataskaita buvo paskelbta 10 valandos ir 48 minutes, ne 14:35 UTC
Prognozė galioja nuo 26 metu 15 UTC su 26 metu 18 UTC
Vėjas 8 kt iš Pietų/Pietvakarių
Matomumas 10 km arba daugiau
Išsisklaidę debesys ne aukštis 2000 ft
Laikinai
nuo 26 metu 15 UTC su 26 metu 18 UTC
Su prošvaistėmis ne aukštis 1200 ft

TAF: EFKI 261435Z 2615/2618 20008KT 9999 SCT020 TEMPO 2615/2618 BKN012

Orai ataskaitas ir orų prognozės (METAR, TAF).

turimą stotys yra geltonos ir raudonos taškus žemėlapyje.

Perkelti pele per norėdami pamatyti stoties vardą.

Tada spustelėkite, norėdami matyti oro stebėjimo ir prognozės.

Norėdami pakeisti žemėlapį: spustelėkite ant žalios mygtukų su juodo kryžiaus žemyn,; žalią mygtuką su brūkšneliu, jei norite nutolinti; arba žalių rodyklių gretimoms žemėlapius.


METAR-TAF: